createdAt,value
2016-06-11T00:00:19.589Z,0
2016-06-11T00:01:19.607Z,0
2016-06-11T00:02:19.564Z,0
2016-06-11T00:03:19.645Z,0
2016-06-11T00:04:19.538Z,0
2016-06-11T00:05:19.541Z,0
2016-06-11T00:06:19.529Z,0
2016-06-11T00:07:19.595Z,0
2016-06-11T00:08:19.347Z,0
2016-06-11T00:09:19.601Z,0
2016-06-11T00:10:19.478Z,0
2016-06-11T00:11:19.466Z,0
2016-06-11T00:12:19.454Z,0
2016-06-11T00:13:19.457Z,0
2016-06-11T00:14:19.444Z,0
2016-06-11T00:15:19.400Z,0
2016-06-11T00:16:19.246Z,0
2016-06-11T00:17:19.422Z,0
2016-06-11T00:18:19.363Z,0
2016-06-11T00:19:19.366Z,0
2016-06-11T00:20:19.353Z,0
2016-06-11T00:21:19.325Z,0
2016-06-11T00:22:19.344Z,0
2016-06-11T00:23:19.393Z,0
2016-06-11T00:24:19.302Z,0
2016-06-11T00:25:19.291Z,0
2016-06-11T00:26:19.278Z,0
2016-06-11T00:27:19.266Z,0
2016-06-11T00:28:19.112Z,0
2016-06-11T00:29:20.131Z,0
2016-06-11T00:30:19.243Z,0
2016-06-11T00:31:19.106Z,0
2016-06-11T00:32:19.187Z,0
2016-06-11T00:33:19.190Z,0
2016-06-11T00:34:19.162Z,0
2016-06-11T00:35:19.149Z,0
2016-06-11T00:36:18.997Z,0
2016-06-11T00:37:19.139Z,0
2016-06-11T00:38:19.128Z,0
2016-06-11T00:39:19.114Z,0
2016-06-11T00:40:19.087Z,0
2016-06-11T00:41:19.074Z,0
2016-06-11T00:42:19.077Z,0
2016-06-11T00:43:19.065Z,0
2016-06-11T00:44:18.927Z,0
2016-06-11T00:45:19.024Z,0
2016-06-11T00:46:19.042Z,0
2016-06-11T00:47:18.999Z,0
2016-06-11T00:48:18.986Z,0
2016-06-11T00:49:18.973Z,0
2016-06-11T00:50:18.962Z,0
2016-06-11T00:51:18.980Z,0
2016-06-11T00:52:18.935Z,0
2016-06-11T00:53:18.939Z,0
2016-06-11T00:54:18.911Z,0
2016-06-11T00:55:18.930Z,0
2016-06-11T00:56:18.917Z,0
2016-06-11T00:57:18.888Z,0
2016-06-11T00:58:18.861Z,0
2016-06-11T00:59:18.879Z,0
2016-06-11T01:00:18.851Z,0
2016-06-11T01:01:18.823Z,0
2016-06-11T01:02:18.826Z,0
2016-06-11T01:03:18.813Z,0
2016-06-11T01:04:18.833Z,0
2016-06-11T01:05:18.788Z,0
2016-06-11T01:06:18.823Z,0
2016-06-11T01:07:18.591Z,0
2016-06-11T01:08:18.767Z,0
2016-06-11T01:09:18.738Z,0
2016-06-11T01:10:18.804Z,0
2016-06-11T01:11:18.729Z,0
2016-06-11T01:12:18.794Z,0
2016-06-11T01:13:18.672Z,0
2016-06-11T01:14:18.519Z,0
2016-06-11T01:15:18.647Z,0
2016-06-11T01:16:18.650Z,0
2016-06-11T01:17:18.654Z,0
2016-06-11T01:18:18.626Z,0
2016-06-11T01:19:18.596Z,0
2016-06-11T01:20:18.600Z,0
2016-06-11T01:21:18.416Z,0
2016-06-11T01:22:18.543Z,0
2016-06-11T01:23:18.406Z,0
2016-06-11T01:24:18.580Z,0
2016-06-11T01:25:18.522Z,0
2016-06-11T01:26:18.572Z,0
2016-06-11T01:27:18.496Z,0
2016-06-11T01:28:18.484Z,0
2016-06-11T01:29:18.924Z,0
2016-06-11T01:30:18.491Z,0
2016-06-11T01:31:18.446Z,0
2016-06-11T01:32:18.434Z,0
2016-06-11T01:33:18.436Z,0
2016-06-11T01:34:18.471Z,0
2016-06-11T01:35:18.412Z,0
2016-06-11T01:36:18.384Z,0
2016-06-11T01:37:18.387Z,0
2016-06-11T01:38:18.374Z,0
2016-06-11T01:39:18.174Z,0
2016-06-11T01:40:18.333Z,0
2016-06-11T01:41:18.306Z,0
2016-06-11T01:42:18.308Z,0
2016-06-11T01:43:18.139Z,0
2016-06-11T01:44:18.862Z,0
2016-06-11T01:45:18.286Z,0
2016-06-11T01:46:18.274Z,0
2016-06-11T01:47:18.229Z,0
2016-06-11T01:48:18.232Z,0
2016-06-11T01:49:18.221Z,0
2016-06-11T01:50:18.208Z,0
2016-06-11T01:51:18.194Z,0
2016-06-11T01:52:18.167Z,0
2016-06-11T01:53:18.170Z,0
2016-06-11T01:54:18.158Z,0
2016-06-11T01:55:18.145Z,0
2016-06-11T01:56:18.132Z,0
2016-06-11T01:57:18.104Z,0
2016-06-11T01:58:18.123Z,0
2016-06-11T01:59:18.298Z,0
2016-06-11T02:00:18.786Z,0
2016-06-11T02:01:18.069Z,0
2016-06-11T02:02:18.042Z,0
2016-06-11T02:03:18.045Z,0
2016-06-11T02:04:18.017Z,0
2016-06-11T02:05:17.848Z,0
2016-06-11T02:06:18.007Z,0
2016-06-11T02:07:17.994Z,0
2016-06-11T02:08:17.982Z,0
2016-06-11T02:09:17.798Z,0
2016-06-11T02:10:17.958Z,0
2016-06-11T02:11:17.788Z,0
2016-06-11T02:12:17.948Z,0
2016-06-11T02:13:17.904Z,0
2016-06-11T02:14:18.501Z,0
2016-06-11T02:15:17.893Z,0
2016-06-11T02:16:17.866Z,0
2016-06-11T02:17:17.744Z,0
2016-06-11T02:18:17.841Z,0
2016-06-11T02:19:17.828Z,0
2016-06-11T02:20:17.800Z,0
2016-06-11T02:21:17.897Z,0
2016-06-11T02:22:17.775Z,0
2016-06-11T02:23:17.779Z,0
2016-06-11T02:24:17.781Z,0
2016-06-11T02:25:17.784Z,0
2016-06-11T02:26:17.741Z,0
2016-06-11T02:27:17.713Z,0
2016-06-11T02:28:17.715Z,0
2016-06-11T02:29:17.719Z,0
2016-06-11T02:30:18.705Z,0
2016-06-11T02:31:17.772Z,0
2016-06-11T02:32:17.681Z,0
2016-06-11T02:33:17.637Z,0
2016-06-11T02:34:17.624Z,0
2016-06-11T02:35:17.612Z,0
2016-06-11T02:36:17.599Z,0
2016-06-11T02:37:17.618Z,0
2016-06-11T02:38:17.575Z,4
2016-06-11T02:39:17.577Z,4
2016-06-11T02:40:17.533Z,0
2016-06-11T02:41:17.583Z,0
2016-06-11T02:42:17.524Z,0
2016-06-11T02:43:17.574Z,4
2016-06-11T02:44:17.327Z,4
2016-06-11T02:45:17.360Z,4
2016-06-11T02:46:17.474Z,0
2016-06-11T02:47:17.555Z,4
2016-06-11T02:48:17.464Z,4
2016-06-11T02:49:17.420Z,8
2016-06-11T02:50:17.455Z,4
2016-06-11T02:51:17.395Z,4
2016-06-11T02:52:17.399Z,8
2016-06-11T02:53:17.370Z,8
2016-06-11T02:54:17.388Z,8
2016-06-11T02:55:17.346Z,8
2016-06-11T02:56:17.349Z,12
2016-06-11T02:57:17.382Z,12
2016-06-11T02:58:17.323Z,12
2016-06-11T02:59:17.826Z,12
2016-06-11T03:00:17.907Z,16
2016-06-11T03:01:17.301Z,16
2016-06-11T03:02:17.274Z,20
2016-06-11T03:03:17.229Z,20
2016-06-11T03:04:17.248Z,24
2016-06-11T03:05:17.220Z,24
2016-06-11T03:06:17.191Z,28
2016-06-11T03:07:17.194Z,32
2016-06-11T03:08:17.167Z,32
2016-06-11T03:09:17.185Z,36
2016-06-11T03:10:17.017Z,36
2016-06-11T03:11:17.159Z,40
2016-06-11T03:12:17.115Z,44
2016-06-11T03:13:17.119Z,40
2016-06-11T03:14:17.232Z,48
2016-06-11T03:15:16.938Z,48
2016-06-11T03:16:17.081Z,52
2016-06-11T03:17:17.069Z,52
2016-06-11T03:18:16.897Z,56
2016-06-11T03:19:17.045Z,56
2016-06-11T03:20:17.013Z,60
2016-06-11T03:21:17.000Z,64
2016-06-11T03:22:16.987Z,68
2016-06-11T03:23:16.975Z,68
2016-06-11T03:24:16.963Z,72
2016-06-11T03:25:16.949Z,76
2016-06-11T03:26:16.922Z,80
2016-06-11T03:27:16.925Z,84
2016-06-11T03:28:16.912Z,88
2016-06-11T03:29:16.915Z,96
2016-06-11T03:30:16.903Z,96
2016-06-11T03:31:16.859Z,100
2016-06-11T03:32:16.846Z,108
2016-06-11T03:33:16.834Z,116
2016-06-11T03:34:16.822Z,120
2016-06-11T03:35:16.653Z,124
2016-06-11T03:36:16.796Z,132
2016-06-11T03:37:16.800Z,136
2016-06-11T03:38:16.771Z,144
2016-06-11T03:39:16.742Z,148
2016-06-11T03:40:16.902Z,152
2016-06-11T03:41:16.718Z,160
2016-06-11T03:42:16.721Z,164
2016-06-11T03:43:16.708Z,172
2016-06-11T03:44:16.727Z,172
2016-06-11T03:45:16.777Z,176
2016-06-11T03:46:16.655Z,180
2016-06-11T03:47:16.642Z,188
2016-06-11T03:48:16.646Z,192
2016-06-11T03:49:16.649Z,196
2016-06-11T03:50:16.621Z,200
2016-06-11T03:51:16.435Z,204
2016-06-11T03:52:16.596Z,208
2016-06-11T03:53:16.552Z,212
2016-06-11T03:54:16.633Z,216
2016-06-11T03:55:16.542Z,224
2016-06-11T03:56:16.576Z,228
2016-06-11T03:57:16.517Z,236
2016-06-11T03:58:16.598Z,244
2016-06-11T03:59:16.493Z,252
2016-06-11T04:00:17.182Z,260
2016-06-11T04:01:16.451Z,268
2016-06-11T04:02:16.313Z,280
2016-06-11T04:03:16.441Z,288
2016-06-11T04:04:16.444Z,300
2016-06-11T04:05:16.432Z,304
2016-06-11T04:06:16.389Z,312
2016-06-11T04:07:16.376Z,320
2016-06-11T04:08:16.378Z,328
2016-06-11T04:09:16.351Z,336
2016-06-11T04:10:16.369Z,344
2016-06-11T04:11:16.326Z,348
2016-06-11T04:12:16.313Z,360
2016-06-11T04:13:16.285Z,372
2016-06-11T04:14:16.288Z,380
2016-06-11T04:15:16.729Z,396
2016-06-11T04:16:16.262Z,408
2016-06-11T04:17:16.250Z,428
2016-06-11T04:18:16.238Z,440
2016-06-11T04:19:16.225Z,456
2016-06-11T04:20:16.274Z,472
2016-06-11T04:21:16.185Z,484
2016-06-11T04:22:16.235Z,500
2016-06-11T04:23:16.175Z,508
2016-06-11T04:24:16.162Z,520
2016-06-11T04:25:16.135Z,532
2016-06-11T04:26:16.184Z,544
2016-06-11T04:27:16.109Z,556
2016-06-11T04:28:16.112Z,568
2016-06-11T04:29:16.100Z,580
2016-06-11T04:30:16.618Z,592
2016-06-11T04:31:15.747Z,604
2016-06-11T04:32:16.062Z,616
2016-06-11T04:33:16.034Z,620
2016-06-11T04:34:16.022Z,620
2016-06-11T04:35:15.665Z,616
2016-06-11T04:36:15.996Z,612
2016-06-11T04:37:15.984Z,612
2016-06-11T04:38:16.018Z,608
2016-06-11T04:39:15.943Z,608
2016-06-11T04:40:15.930Z,612
2016-06-11T04:41:15.918Z,612
2016-06-11T04:42:15.765Z,620
2016-06-11T04:43:15.924Z,632
2016-06-11T04:44:15.911Z,640
2016-06-11T04:45:15.743Z,652
2016-06-11T04:46:15.854Z,664
2016-06-11T04:47:15.826Z,676
2016-06-11T04:48:15.830Z,696
2016-06-11T04:49:15.849Z,716
2016-06-11T04:50:15.789Z,736
2016-06-11T04:51:15.792Z,760
2016-06-11T04:52:15.780Z,784
2016-06-11T04:53:15.611Z,808
2016-06-11T04:54:15.724Z,824
2016-06-11T04:55:15.726Z,844
2016-06-11T04:56:15.714Z,868
2016-06-11T04:57:15.685Z,888
2016-06-11T04:58:15.688Z,904
2016-06-11T04:59:15.677Z,928
2016-06-11T05:00:15.680Z,952
2016-06-11T05:01:15.666Z,980
2016-06-11T05:02:15.639Z,1008
2016-06-11T05:03:15.642Z,1044
2016-06-11T05:04:15.614Z,1076
2016-06-11T05:05:15.445Z,1108
2016-06-11T05:06:15.588Z,1140
2016-06-11T05:07:15.576Z,1172
2016-06-11T05:08:15.564Z,1204
2016-06-11T05:09:15.550Z,1240
2016-06-11T05:10:15.554Z,1284
2016-06-11T05:11:15.541Z,1328
2016-06-11T05:12:15.482Z,1372
2016-06-11T05:13:15.563Z,1420
2016-06-11T05:14:15.487Z,1460
2016-06-11T05:15:15.491Z,1504
2016-06-11T05:16:15.307Z,1552
2016-06-11T05:17:15.450Z,1592
2016-06-11T05:18:15.407Z,1636
2016-06-11T05:19:15.410Z,1668
2016-06-11T05:20:15.257Z,1700
2016-06-11T05:21:15.417Z,1728
2016-06-11T05:22:15.231Z,1744
2016-06-11T05:23:15.390Z,1756
2016-06-11T05:24:15.347Z,1760
2016-06-11T05:25:15.365Z,1756
2016-06-11T05:26:15.166Z,1740
2016-06-11T05:27:15.325Z,1724
2016-06-11T05:28:15.296Z,1704
2016-06-11T05:29:15.316Z,1680
2016-06-11T05:30:15.897Z,1664
2016-06-11T05:31:15.275Z,1644
2016-06-11T05:32:15.231Z,1632
2016-06-11T05:33:15.234Z,1620
2016-06-11T05:34:15.206Z,1620
2016-06-11T05:35:15.224Z,1624
2016-06-11T05:36:15.197Z,1636
2016-06-11T05:37:15.215Z,1652
2016-06-11T05:38:15.171Z,1668
2016-06-11T05:39:15.003Z,1680
2016-06-11T05:40:15.145Z,1688
2016-06-11T05:41:15.133Z,1700
2016-06-11T05:42:15.106Z,1712
2016-06-11T05:43:15.093Z,1736
2016-06-11T05:44:15.080Z,1760
2016-06-11T05:45:15.255Z,1792
2016-06-11T05:46:14.759Z,1828
2016-06-11T05:47:14.902Z,1868
2016-06-11T05:48:15.030Z,1904
2016-06-11T05:49:15.017Z,1940
2016-06-11T05:50:15.006Z,1976
2016-06-11T05:51:14.992Z,2016
2016-06-11T05:52:14.995Z,2060
2016-06-11T05:53:14.952Z,2108
2016-06-11T05:54:14.799Z,2168
2016-06-11T05:55:14.942Z,2220
2016-06-11T05:56:14.929Z,2272
2016-06-11T05:57:14.967Z,2316
2016-06-11T05:58:14.965Z,2360
2016-06-11T05:59:15.008Z,2400
2016-06-11T06:00:15.317Z,2440
2016-06-11T06:01:14.955Z,2476
2016-06-11T06:02:15.086Z,2516
2016-06-11T06:03:15.104Z,2556
2016-06-11T06:04:15.089Z,2588
2016-06-11T06:05:15.076Z,2624
2016-06-11T06:06:15.110Z,2652
2016-06-11T06:07:15.073Z,2676
2016-06-11T06:08:15.065Z,2688
2016-06-11T06:09:15.074Z,2680
2016-06-11T06:10:14.879Z,2672
2016-06-11T06:11:15.029Z,2648
2016-06-11T06:12:15.049Z,2616
2016-06-11T06:13:15.023Z,2588
2016-06-11T06:14:15.028Z,2556
2016-06-11T06:15:14.846Z,2528
2016-06-11T06:16:15.304Z,2508
2016-06-11T06:17:14.995Z,2496
2016-06-11T06:18:14.984Z,2492
2016-06-11T06:19:14.830Z,2488
2016-06-11T06:20:14.944Z,2488
2016-06-11T06:21:14.917Z,2484
2016-06-11T06:22:14.905Z,2480
2016-06-11T06:23:14.924Z,2468
2016-06-11T06:24:14.880Z,2460
2016-06-11T06:25:14.725Z,2452
2016-06-11T06:26:14.698Z,2440
2016-06-11T06:27:14.842Z,2432
2016-06-11T06:28:14.845Z,2412
2016-06-11T06:29:14.817Z,2400
2016-06-11T06:30:15.241Z,2384
2016-06-11T06:31:14.698Z,2368
2016-06-11T06:32:14.794Z,2352
2016-06-11T06:33:14.767Z,2340
2016-06-11T06:34:14.894Z,2328
2016-06-11T06:35:14.803Z,2316
2016-06-11T06:36:14.760Z,2308
2016-06-11T06:37:15.092Z,2300
2016-06-11T06:38:14.719Z,2296
2016-06-11T06:39:14.691Z,2288
2016-06-11T06:40:14.710Z,2276
2016-06-11T06:41:14.510Z,2268
2016-06-11T06:42:14.700Z,2256
2016-06-11T06:43:14.642Z,2248
2016-06-11T06:44:14.706Z,2244
2016-06-11T06:45:15.631Z,2240
2016-06-11T06:46:14.806Z,2240
2016-06-11T06:47:14.623Z,2248
2016-06-11T06:48:14.438Z,2252
2016-06-11T06:49:14.581Z,2268
2016-06-11T06:50:14.568Z,2284
2016-06-11T06:51:14.541Z,2304
2016-06-11T06:52:14.544Z,2320
2016-06-11T06:53:14.530Z,2336
2016-06-11T06:54:14.597Z,2356
2016-06-11T06:55:14.522Z,2380
2016-06-11T06:56:14.525Z,2400
2016-06-11T06:57:14.465Z,2424
2016-06-11T06:58:14.500Z,2444
2016-06-11T06:59:14.440Z,2468
2016-06-11T07:00:14.896Z,2500
2016-06-11T07:01:14.791Z,2540
2016-06-11T07:02:14.418Z,2576
2016-06-11T07:03:14.406Z,2620
2016-06-11T07:04:14.408Z,2664
2016-06-11T07:05:14.381Z,2716
2016-06-11T07:06:14.446Z,2768
2016-06-11T07:07:14.355Z,2820
2016-06-11T07:08:14.405Z,2876
2016-06-11T07:09:14.315Z,2928
2016-06-11T07:10:14.318Z,2980
2016-06-11T07:11:14.305Z,3032
2016-06-11T07:12:14.277Z,3076
2016-06-11T07:13:14.295Z,3116
2016-06-11T07:14:14.267Z,3148
2016-06-11T07:15:14.427Z,3176
2016-06-11T07:16:14.382Z,3200
2016-06-11T07:17:14.104Z,3220
2016-06-11T07:18:14.233Z,3240
2016-06-11T07:19:14.189Z,3260
2016-06-11T07:20:14.176Z,3284
2016-06-11T07:21:14.164Z,3312
2016-06-11T07:22:14.151Z,3348
2016-06-11T07:23:14.139Z,3392
2016-06-11T07:24:14.142Z,3440
2016-06-11T07:25:14.114Z,3500
2016-06-11T07:26:14.117Z,3556
2016-06-11T07:27:14.104Z,3620
2016-06-11T07:28:14.107Z,3684
2016-06-11T07:29:14.095Z,3748
2016-06-11T07:30:14.051Z,3816
2016-06-11T07:31:14.194Z,3880
2016-06-11T07:32:14.057Z,3956
2016-06-11T07:33:14.044Z,4040
2016-06-11T07:34:14.032Z,4124
2016-06-11T07:35:14.004Z,4208
2016-06-11T07:36:13.976Z,4292
2016-06-11T07:37:13.979Z,4376
2016-06-11T07:38:13.982Z,4460
2016-06-11T07:39:13.953Z,4548
2016-06-11T07:40:13.957Z,4636
2016-06-11T07:41:13.772Z,4704
2016-06-11T07:42:13.916Z,4748
2016-06-11T07:43:13.748Z,4768
2016-06-11T07:44:13.891Z,4768
2016-06-11T07:45:14.315Z,4764
2016-06-11T07:46:13.897Z,4748
2016-06-11T07:47:13.744Z,4736
2016-06-11T07:48:13.841Z,4720
2016-06-11T07:49:13.828Z,4712
2016-06-11T07:50:13.816Z,4708
2016-06-11T07:51:13.834Z,4728
2016-06-11T07:52:13.806Z,4772
2016-06-11T07:53:14.106Z,4848
2016-06-11T07:54:13.782Z,4928
2016-06-11T07:55:13.847Z,4980
2016-06-11T07:56:13.771Z,4988
2016-06-11T07:57:13.774Z,4936
2016-06-11T07:58:13.747Z,4844
2016-06-11T07:59:13.734Z,4728
2016-06-11T08:00:13.722Z,4604
2016-06-11T08:01:13.709Z,4484
2016-06-11T08:02:13.696Z,4392
2016-06-11T08:03:13.699Z,4316
2016-06-11T08:04:13.687Z,4260
2016-06-11T08:05:13.721Z,4212
2016-06-11T08:06:13.647Z,4176
2016-06-11T08:07:13.649Z,4148
2016-06-11T08:08:13.622Z,4128
2016-06-11T08:09:13.624Z,4116
2016-06-11T08:10:13.595Z,4120
2016-06-11T08:11:13.583Z,4124
2016-06-11T08:12:13.430Z,4148
2016-06-11T08:13:13.558Z,4176
2016-06-11T08:14:13.576Z,4216
2016-06-11T08:15:13.564Z,4268
2016-06-11T08:16:13.411Z,4328
2016-06-11T08:17:13.524Z,4380
2016-06-11T08:18:13.542Z,4432
2016-06-11T08:19:13.374Z,4472
2016-06-11T08:20:13.501Z,4516
2016-06-11T08:21:13.520Z,4556
2016-06-11T08:22:13.445Z,4588
2016-06-11T08:23:13.480Z,4624
2016-06-11T08:24:13.452Z,4648
2016-06-11T08:25:13.439Z,4672
2016-06-11T08:26:13.442Z,4672
2016-06-11T08:27:13.445Z,4640
2016-06-11T08:28:13.417Z,4572
2016-06-11T08:29:13.404Z,4492
2016-06-11T08:30:13.392Z,4432
2016-06-11T08:31:14.207Z,4400
2016-06-11T08:32:13.366Z,4392
2016-06-11T08:33:13.354Z,4408
2016-06-11T08:34:13.341Z,4428
2016-06-11T08:35:13.329Z,4452
2016-06-11T08:36:13.333Z,4468
2016-06-11T08:37:13.304Z,4468
2016-06-11T08:38:13.306Z,4456
2016-06-11T08:39:13.294Z,4436
2016-06-11T08:40:13.266Z,4412
2016-06-11T08:41:13.301Z,4400
2016-06-11T08:42:13.241Z,4388
2016-06-11T08:43:13.244Z,4396
2016-06-11T08:44:13.216Z,4404
2016-06-11T08:45:13.235Z,4412
2016-06-11T08:46:13.238Z,4420
2016-06-11T08:47:13.037Z,4424
2016-06-11T08:48:13.040Z,4428
2016-06-11T08:49:13.168Z,4428
2016-06-11T08:50:13.156Z,4432
2016-06-11T08:51:13.159Z,4440
2016-06-11T08:52:13.272Z,4460
2016-06-11T08:53:13.135Z,4488
2016-06-11T08:54:13.169Z,4536
2016-06-11T08:55:12.953Z,4592
2016-06-11T08:56:13.128Z,4648
2016-06-11T08:57:13.084Z,4696
2016-06-11T08:58:13.118Z,4740
2016-06-11T08:59:13.074Z,4772
2016-06-11T09:00:13.047Z,4796
2016-06-11T09:01:13.127Z,4812
2016-06-11T09:02:13.069Z,4816
2016-06-11T09:03:13.008Z,4804
2016-06-11T09:04:13.043Z,4788
2016-06-11T09:05:13.014Z,4776
2016-06-11T09:06:13.034Z,4776
2016-06-11T09:07:12.959Z,4784
2016-06-11T09:08:12.992Z,4792
2016-06-11T09:09:12.965Z,4796
2016-06-11T09:10:12.952Z,4808
2016-06-11T09:11:12.924Z,4824
2016-06-11T09:12:12.943Z,4832
2016-06-11T09:13:12.914Z,4852
2016-06-11T09:14:12.950Z,4876
2016-06-11T09:15:12.733Z,4892
2016-06-11T09:16:13.673Z,4916
2016-06-11T09:17:13.129Z,4936
2016-06-11T09:18:12.836Z,4960
2016-06-11T09:19:12.855Z,5000
2016-06-11T09:20:12.843Z,5052
2016-06-11T09:21:12.846Z,5132
2016-06-11T09:22:12.832Z,5196
2016-06-11T09:23:12.789Z,5244
2016-06-11T09:24:12.839Z,5256
2016-06-11T09:25:12.779Z,5224
2016-06-11T09:26:12.782Z,5188
2016-06-11T09:27:12.740Z,5156
2016-06-11T09:28:12.742Z,5124
2016-06-11T09:29:12.730Z,5108
2016-06-11T09:30:12.732Z,5112
2016-06-11T09:31:13.455Z,5128
2016-06-11T09:32:12.708Z,5152
2016-06-11T09:33:12.695Z,5188
2016-06-11T09:34:12.682Z,5236
2016-06-11T09:35:12.670Z,5276
2016-06-11T09:36:12.688Z,5328
2016-06-11T09:37:12.645Z,5392
2016-06-11T09:38:12.632Z,5436
2016-06-11T09:39:12.619Z,5492
2016-06-11T09:40:12.466Z,5556
2016-06-11T09:41:12.626Z,5608
2016-06-11T09:42:12.597Z,5632
2016-06-11T09:43:12.600Z,5660
2016-06-11T09:44:12.588Z,5660
2016-06-11T09:45:12.560Z,5652
2016-06-11T09:46:12.516Z,5644
2016-06-11T09:47:12.941Z,5636
2016-06-11T09:48:12.538Z,5624
2016-06-11T09:49:12.571Z,5628
2016-06-11T09:50:12.528Z,5636
2016-06-11T09:51:12.547Z,5640
2016-06-11T09:52:12.487Z,5652
2016-06-11T09:53:12.490Z,5660
2016-06-11T09:54:12.478Z,5672
2016-06-11T09:55:12.465Z,5688
2016-06-11T09:56:12.468Z,5728
2016-06-11T09:57:12.440Z,5776
2016-06-11T09:58:12.444Z,5856
2016-06-11T09:59:12.416Z,5972
2016-06-11T10:00:12.418Z,6128
2016-06-11T10:01:12.483Z,6276
2016-06-11T10:02:12.409Z,6380
2016-06-11T10:03:12.381Z,6468
2016-06-11T10:04:12.399Z,6508
2016-06-11T10:05:12.418Z,6492
2016-06-11T10:06:12.344Z,6452
2016-06-11T10:07:12.440Z,6396
2016-06-11T10:08:12.333Z,6296
2016-06-11T10:09:12.164Z,6172
2016-06-11T10:10:12.325Z,6112
2016-06-11T10:11:12.328Z,6080
2016-06-11T10:12:12.298Z,6072
2016-06-11T10:13:12.364Z,6088
2016-06-11T10:14:12.273Z,6136
2016-06-11T10:15:12.324Z,6188
2016-06-11T10:16:12.311Z,6272
2016-06-11T10:17:12.439Z,6340
2016-06-11T10:18:12.239Z,6396
2016-06-11T10:19:12.242Z,6472
2016-06-11T10:20:12.215Z,6560
2016-06-11T10:21:12.217Z,6676
2016-06-11T10:22:12.173Z,6768
2016-06-11T10:23:12.207Z,6860
2016-06-11T10:24:12.164Z,6964
2016-06-11T10:25:12.167Z,7012
2016-06-11T10:26:12.185Z,7000
2016-06-11T10:27:12.189Z,6972
2016-06-11T10:28:12.144Z,6936
2016-06-11T10:29:12.133Z,6892
2016-06-11T10:30:12.119Z,6844
2016-06-11T10:31:12.123Z,6804
2016-06-11T10:32:11.814Z,6772
2016-06-11T10:33:12.098Z,6752
2016-06-11T10:34:12.055Z,6732
2016-06-11T10:35:11.916Z,6728
2016-06-11T10:36:12.044Z,6752
2016-06-11T10:37:12.048Z,6800
2016-06-11T10:38:12.035Z,6856
2016-06-11T10:39:11.866Z,6940
2016-06-11T10:40:12.026Z,7036
2016-06-11T10:41:12.012Z,7148
2016-06-11T10:42:12.016Z,7280
2016-06-11T10:43:11.987Z,7428
2016-06-11T10:44:11.991Z,7580
2016-06-11T10:45:11.963Z,7744
2016-06-11T10:46:11.669Z,7904
2016-06-11T10:47:12.203Z,8044
2016-06-11T10:48:11.972Z,8176
2016-06-11T10:49:11.929Z,8276
2016-06-11T10:50:11.978Z,8372
2016-06-11T10:51:11.935Z,8444
2016-06-11T10:52:11.906Z,8492
2016-06-11T10:53:11.910Z,8624
2016-06-11T10:54:11.896Z,8696
2016-06-11T10:55:11.728Z,8768
2016-06-11T10:56:11.716Z,8876
2016-06-11T10:57:11.859Z,9052
2016-06-11T10:58:11.878Z,9240
2016-06-11T10:59:11.834Z,9432
2016-06-11T11:00:11.821Z,9652
2016-06-11T11:01:11.653Z,9692
2016-06-11T11:02:11.702Z,9888
2016-06-11T11:03:11.816Z,10156
2016-06-11T11:04:11.787Z,10320
2016-06-11T11:05:11.758Z,10516
2016-06-11T11:06:11.778Z,10704
2016-06-11T11:07:11.749Z,10992
2016-06-11T11:08:11.815Z,11208
2016-06-11T11:09:11.740Z,11240
2016-06-11T11:10:11.743Z,11212
2016-06-11T11:11:11.729Z,11384
2016-06-11T11:12:11.702Z,11332
2016-06-11T11:13:11.736Z,11380
2016-06-11T11:14:11.552Z,11400
2016-06-11T11:15:11.680Z,11316
2016-06-11T11:16:11.683Z,11128
2016-06-11T11:17:11.703Z,10892
2016-06-11T11:18:11.673Z,10720
2016-06-11T11:19:11.677Z,10584
2016-06-11T11:20:11.665Z,10532
2016-06-11T11:21:11.496Z,10508
2016-06-11T11:22:11.655Z,10472
2016-06-11T11:23:11.627Z,10408
2016-06-11T11:24:11.645Z,10384
2016-06-11T11:25:11.648Z,10356
2016-06-11T11:26:11.605Z,10304
2016-06-11T11:27:11.608Z,10328
2016-06-11T11:28:11.595Z,10248
2016-06-11T11:29:11.598Z,10220
2016-06-11T11:30:11.571Z,10180
2016-06-11T11:31:11.574Z,10160
2016-06-11T11:32:11.670Z,10116
2016-06-11T11:33:11.595Z,10152
2016-06-11T11:34:11.567Z,10112
2016-06-11T11:35:11.616Z,10036
2016-06-11T11:36:11.386Z,9764
2016-06-11T11:37:11.560Z,9988
2016-06-11T11:38:11.516Z,9928
2016-06-11T11:39:11.520Z,9832
2016-06-11T11:40:11.524Z,9736
2016-06-11T11:41:11.526Z,9676
2016-06-11T11:42:11.497Z,9724
2016-06-11T11:43:11.579Z,9688
2016-06-11T11:44:11.488Z,9636
2016-06-11T11:45:11.522Z,9568
2016-06-11T11:46:11.495Z,9500
2016-06-11T11:47:11.637Z,9440
2016-06-11T11:48:11.469Z,9460
2016-06-11T11:49:11.472Z,9416
2016-06-11T11:50:11.459Z,9240
2016-06-11T11:51:11.510Z,9212
2016-06-11T11:52:11.435Z,9168
2016-06-11T11:53:11.422Z,9200
2016-06-11T11:54:11.425Z,9192
2016-06-11T11:55:11.444Z,9056
2016-06-11T11:56:11.400Z,8980
2016-06-11T11:57:11.418Z,8992
2016-06-11T11:58:11.390Z,8936
2016-06-11T11:59:11.377Z,8924
2016-06-11T12:00:11.381Z,8948
2016-06-11T12:01:11.369Z,8904
2016-06-11T12:02:11.231Z,9008
2016-06-11T12:03:11.344Z,8976
2016-06-11T12:04:11.347Z,8964
2016-06-11T12:05:11.333Z,9060
2016-06-11T12:06:11.165Z,9136
2016-06-11T12:07:11.309Z,9172
2016-06-11T12:08:11.312Z,9192
2016-06-11T12:09:11.330Z,9248
2016-06-11T12:10:11.334Z,9244
2016-06-11T12:11:11.305Z,9376
2016-06-11T12:12:11.308Z,9408
2016-06-11T12:13:11.265Z,9412
2016-06-11T12:14:11.440Z,9556
2016-06-11T12:15:11.255Z,9500
2016-06-11T12:16:11.243Z,9584
2016-06-11T12:17:11.277Z,9864
2016-06-11T12:18:11.155Z,9920
2016-06-11T12:19:11.252Z,9496
2016-06-11T12:20:11.239Z,9620
2016-06-11T12:21:11.211Z,9644
2016-06-11T12:22:11.230Z,9460
2016-06-11T12:23:11.201Z,9208
2016-06-11T12:24:11.251Z,9636
2016-06-11T12:25:11.208Z,9780
2016-06-11T12:26:11.039Z,9620
2016-06-11T12:27:11.199Z,9204
2016-06-11T12:28:11.014Z,8840
2016-06-11T12:29:11.188Z,8708
2016-06-11T12:30:11.161Z,8688
2016-06-11T12:31:11.164Z,8700
2016-06-11T12:32:11.370Z,8428
2016-06-11T12:33:11.139Z,8324
2016-06-11T12:34:11.142Z,8220
2016-06-11T12:35:10.849Z,8128
2016-06-11T12:36:11.133Z,8032
2016-06-11T12:37:11.104Z,7948
2016-06-11T12:38:11.122Z,7860
2016-06-11T12:39:11.094Z,7792
2016-06-11T12:40:11.114Z,7724
2016-06-11T12:41:11.117Z,7668
2016-06-11T12:42:11.104Z,7612
2016-06-11T12:43:11.076Z,7528
2016-06-11T12:44:11.079Z,7416
2016-06-11T12:45:11.051Z,7316
2016-06-11T12:46:11.054Z,7240
2016-06-11T12:47:11.572Z,7204
2016-06-11T12:48:11.044Z,7208
2016-06-11T12:49:11.031Z,7280
2016-06-11T12:50:11.051Z,7376
2016-06-11T12:51:11.037Z,7692
2016-06-11T12:52:11.026Z,7576
2016-06-11T12:53:10.998Z,7668
2016-06-11T12:54:10.860Z,7804
2016-06-11T12:55:10.925Z,7844
2016-06-11T12:56:11.022Z,7960
2016-06-11T12:57:11.025Z,7876
2016-06-11T12:58:10.981Z,7888
2016-06-11T12:59:10.984Z,7884
2016-06-11T13:00:10.957Z,7888
2016-06-11T13:01:11.053Z,7896
2016-06-11T13:02:11.540Z,7856
2016-06-11T13:03:11.294Z,7796
2016-06-11T13:04:10.921Z,7684
2016-06-11T13:05:10.941Z,7564
2016-06-11T13:06:10.927Z,7460
2016-06-11T13:07:10.962Z,7368
2016-06-11T13:08:10.903Z,7288
2016-06-11T13:09:10.922Z,7244
2016-06-11T13:10:10.893Z,7240
2016-06-11T13:11:10.928Z,7244
2016-06-11T13:12:10.712Z,7240
2016-06-11T13:13:10.855Z,7224
2016-06-11T13:14:10.858Z,7200
2016-06-11T13:15:10.878Z,7184
2016-06-11T13:16:10.864Z,7172
2016-06-11T13:17:10.930Z,7220
2016-06-11T13:18:12.183Z,7156
2016-06-11T13:19:10.843Z,7092
2016-06-11T13:20:10.831Z,7040
2016-06-11T13:21:10.818Z,7036
2016-06-11T13:22:10.821Z,7044
2016-06-11T13:23:10.824Z,7112
2016-06-11T13:24:10.796Z,7196
2016-06-11T13:25:10.783Z,7188
2016-06-11T13:26:10.786Z,7272
2016-06-11T13:27:10.790Z,7380
2016-06-11T13:28:10.761Z,7452
2016-06-11T13:29:10.592Z,7524
2016-06-11T13:30:10.814Z,7576
2016-06-11T13:31:10.754Z,7612
2016-06-11T13:32:10.883Z,7628
2016-06-11T13:33:11.042Z,7640
2016-06-11T13:34:10.624Z,7644
2016-06-11T13:35:10.705Z,7668
2016-06-11T13:36:10.614Z,7656
2016-06-11T13:37:10.726Z,7648
2016-06-11T13:38:10.698Z,7668
2016-06-11T13:39:10.685Z,7720
2016-06-11T13:40:10.517Z,7788